RJOA/HIJ METAR and TAF weather

Enter ICAO airport designator
Station Type Date Time Source
RJOA METAR 2021/05/14 23:00 UTC NOAA

RJOA 142300Z 11005KT 080V160 8000 FEW005 SCT018 BKN050 19/17 Q1014


Station Type Date Time Source
RJOA Decoded METAR 2021/05/14 23:00 UTC NOAA

Hiroshima Airport, Japan (RJOA) 34-26N 132-55E 334M
May 14, 2021 - 07:00 PM EDT / 2021.05.14 2300 UTC
Wind: from the ESE (110 degrees) at 6 MPH (5 KT) (direction variable):0
Visibility: 4 mile(s):0
Sky conditions: mostly cloudy
Temperature: 66 F (19 C)
Dew Point: 62 F (17 C)
Relative Humidity: 88%
Pressure (altimeter): 29.94 in. Hg (1014 hPa)
ob: RJOA 142300Z 11005KT 080V160 8000 FEW005 SCT018 BKN050 19/17 Q1014
cycle: 23

Station Type Date Time Source
RJOA TAF 2021/05/14 18:29 UTC NOAA

TAF RJOA 141712Z 1418/1600 32004KT 9999 FEW020 SCT045
BECMG 1421/1423 12005KT
TEMPO 1504/1506 4000 RA BR FEW001 SCT003 BKN005
TEMPO 1506/1512 3000 RA BR BCFG FEW000 SCT001 BKN003
BECMG 1512/1515 3000 -SHRA BR FEW001 SCT003 BKN008
TEMPO 1521/1600 1200 -SHRA BR BCFG FEW000 SCT001 BKN003

Example: see airport list